createdAt,value
2022-10-11T00:01:19.584Z,20.77
2022-10-11T00:03:49.210Z,14.77
2022-10-11T00:06:18.385Z,18.05
2022-10-11T00:08:48.004Z,18.77
2022-10-11T00:11:16.529Z,15.10
2022-10-11T00:13:46.365Z,17.00
2022-10-11T00:16:15.547Z,20.00
2022-10-11T00:18:46.570Z,23.27
2022-10-11T00:21:16.360Z,16.67
2022-10-11T00:23:46.673Z,15.50
2022-10-11T00:26:15.477Z,18.88
2022-10-11T00:28:45.566Z,14.90
2022-10-11T00:31:16.363Z,18.88
2022-10-11T00:33:47.844Z,18.45
2022-10-11T00:36:17.757Z,19.20
2022-10-11T00:38:47.469Z,18.77
2022-10-11T00:41:17.835Z,18.80
2022-10-11T00:43:47.395Z,22.75
2022-10-11T00:46:28.865Z,18.70
2022-10-11T00:49:03.925Z,15.75
2022-10-11T00:51:44.211Z,15.52
2022-10-11T00:54:18.967Z,20.10
2022-10-11T00:56:51.514Z,18.92
2022-10-11T00:59:24.657Z,17.35
2022-10-11T01:01:54.130Z,18.23
2022-10-11T01:04:25.385Z,14.60
2022-10-11T01:06:56.011Z,14.30
2022-10-11T01:09:27.150Z,18.02
2022-10-11T01:12:00.758Z,19.38
2022-10-11T01:15:05.258Z,18.65
2022-10-11T01:17:43.875Z,19.67
2022-10-11T01:20:35.989Z,15.30
2022-10-11T01:23:31.606Z,21.27
2022-10-11T01:26:21.131Z,17.15
2022-10-11T01:29:01.360Z,15.77
2022-10-11T01:31:39.887Z,19.42
2022-10-11T01:34:16.481Z,17.83
2022-10-11T01:36:52.165Z,19.10
2022-10-11T01:39:30.281Z,19.75
2022-10-11T01:42:02.089Z,17.35
2022-10-11T01:44:32.920Z,18.70
2022-10-11T01:47:02.801Z,18.63
2022-10-11T01:49:32.582Z,10.77
2022-10-11T01:52:05.406Z,12.63
2022-10-11T01:55:08.656Z,14.50
2022-10-11T01:57:49.631Z,11.05
2022-10-11T02:00:22.481Z,9.45
2022-10-11T02:03:14.804Z,11.75
2022-10-11T02:05:49.562Z,11.50
2022-10-11T02:08:26.702Z,7.88
2022-10-11T02:11:03.481Z,10.68
2022-10-11T02:13:39.299Z,10.50
2022-10-11T02:16:12.800Z,8.10
2022-10-11T02:18:48.086Z,7.85
2022-10-11T02:21:20.494Z,9.63
2022-10-11T02:23:54.925Z,9.75
2022-10-11T02:26:26.135Z,7.03
2022-10-11T02:29:01.016Z,10.68
2022-10-11T02:31:32.337Z,8.88
2022-10-11T02:34:10.027Z,10.25
2022-10-11T02:36:47.566Z,9.30
2022-10-11T02:39:24.228Z,10.93
2022-10-11T02:41:56.798Z,9.13
2022-10-11T02:44:32.194Z,8.05
2022-10-11T02:47:03.175Z,6.47
2022-10-11T02:49:34.232Z,7.93
2022-10-11T02:52:06.284Z,11.85
2022-10-11T02:54:36.109Z,6.30
2022-10-11T02:57:05.013Z,8.80
2022-10-11T02:59:34.710Z,5.80
2022-10-11T03:02:03.217Z,6.15
2022-10-11T03:04:34.206Z,11.93
2022-10-11T03:07:02.772Z,7.00
2022-10-11T03:09:32.292Z,6.68
2022-10-11T03:12:00.776Z,5.50
2022-10-11T03:14:33.464Z,10.43
2022-10-11T03:17:23.636Z,9.18
2022-10-11T03:19:52.824Z,7.50
2022-10-11T03:22:21.163Z,7.63
2022-10-11T03:24:51.039Z,9.23
2022-10-11T03:27:19.568Z,9.15
2022-10-11T03:29:49.158Z,8.10
2022-10-11T03:32:17.718Z,10.02
2022-10-11T03:34:47.320Z,7.45
2022-10-11T03:37:17.832Z,7.68
2022-10-11T03:39:47.345Z,7.13
2022-10-11T03:42:16.195Z,7.30
2022-10-11T03:44:49.469Z,10.88
2022-10-11T03:47:18.443Z,9.88
2022-10-11T03:49:47.839Z,14.60
2022-10-11T03:52:17.702Z,8.65
2022-10-11T03:54:47.437Z,11.13
2022-10-11T03:57:16.092Z,10.20
2022-10-11T03:59:45.675Z,6.90
2022-10-11T04:02:14.169Z,11.45
2022-10-11T04:04:44.191Z,7.82
2022-10-11T04:07:12.541Z,6.85
2022-10-11T04:09:43.293Z,9.20
2022-10-11T04:12:12.076Z,7.78
2022-10-11T04:14:41.690Z,4.40
2022-10-11T04:17:11.242Z,6.57
2022-10-11T04:19:40.994Z,9.32
2022-10-11T04:22:09.765Z,6.97
2022-10-11T04:24:39.480Z,10.27
2022-10-11T04:27:09.307Z,9.27
2022-10-11T04:29:39.093Z,8.55
2022-10-11T04:32:08.244Z,10.25
2022-10-11T04:34:39.384Z,11.23
2022-10-11T04:37:08.080Z,10.45
2022-10-11T04:39:38.439Z,12.18
2022-10-11T04:42:07.582Z,5.90
2022-10-11T04:44:39.102Z,11.07
2022-10-11T04:47:08.142Z,13.30
2022-10-11T04:49:38.236Z,14.18
2022-10-11T04:52:07.003Z,8.93
2022-10-11T04:54:36.785Z,8.65
2022-10-11T04:57:05.760Z,8.65
2022-10-11T04:59:35.418Z,10.85
2022-10-11T05:02:05.695Z,7.50
2022-10-11T05:04:35.206Z,10.75
2022-10-11T05:07:03.870Z,8.88
2022-10-11T05:09:33.618Z,10.48
2022-10-11T05:12:02.445Z,6.95
2022-10-11T05:14:32.106Z,14.02
2022-10-11T05:17:00.802Z,10.23
2022-10-11T05:19:31.880Z,12.27
2022-10-11T05:22:01.124Z,9.48
2022-10-11T05:24:30.817Z,9.52
2022-10-11T05:27:03.174Z,12.90
2022-10-11T05:29:33.277Z,10.63
2022-10-11T05:32:02.113Z,12.40
2022-10-11T05:34:33.310Z,12.93
2022-10-11T05:37:01.733Z,9.65
2022-10-11T05:39:32.478Z,9.45
2022-10-11T05:42:01.256Z,11.23
2022-10-11T05:44:31.099Z,11.60
2022-10-11T05:46:59.757Z,10.13
2022-10-11T05:49:29.842Z,9.75
2022-10-11T05:52:00.373Z,9.25
2022-10-11T05:54:32.659Z,15.70
2022-10-11T05:57:01.469Z,10.60
2022-10-11T05:59:31.131Z,10.20
2022-10-11T06:02:00.025Z,11.75
2022-10-11T06:04:29.939Z,15.65
2022-10-11T06:07:00.162Z,9.52
2022-10-11T06:09:29.851Z,10.55
2022-10-11T06:11:58.796Z,11.20
2022-10-11T06:14:28.437Z,10.93
2022-10-11T06:16:56.881Z,12.23
2022-10-11T06:19:26.639Z,9.82
2022-10-11T06:21:55.323Z,13.98
2022-10-11T06:24:26.436Z,15.82
2022-10-11T06:26:55.666Z,10.77
2022-10-11T06:29:24.549Z,12.85
2022-10-11T06:31:53.336Z,11.93
2022-10-11T06:34:23.152Z,10.48
2022-10-11T06:36:51.949Z,9.82
2022-10-11T06:39:21.897Z,13.30
2022-10-11T06:41:51.737Z,9.38
2022-10-11T06:44:21.384Z,11.75
2022-10-11T06:46:50.556Z,12.00
2022-10-11T06:49:23.320Z,10.27
2022-10-11T06:51:53.002Z,11.82
2022-10-11T06:54:22.555Z,9.13
2022-10-11T06:56:52.521Z,13.05
2022-10-11T06:59:22.593Z,9.60
2022-10-11T07:01:51.282Z,10.48
2022-10-11T07:04:21.061Z,13.27
2022-10-11T07:06:49.704Z,11.70
2022-10-11T07:09:19.603Z,13.15
2022-10-11T07:11:48.842Z,9.65
2022-10-11T07:14:20.001Z,14.90
2022-10-11T07:16:51.395Z,8.57
2022-10-11T07:19:21.425Z,10.38
2022-10-11T07:21:50.663Z,11.25
2022-10-11T07:24:20.835Z,11.02
2022-10-11T07:26:49.513Z,14.60
2022-10-11T07:29:20.745Z,10.05
2022-10-11T07:31:49.631Z,12.85
2022-10-11T07:34:20.623Z,15.60
2022-10-11T07:36:49.297Z,13.05
2022-10-11T07:39:18.842Z,10.18
2022-10-11T07:41:48.096Z,15.23
2022-10-11T07:44:18.915Z,11.13
2022-10-11T07:46:47.610Z,10.57
2022-10-11T07:49:18.500Z,9.75
2022-10-11T07:51:47.322Z,12.52
2022-10-11T07:54:17.018Z,10.55
2022-10-11T07:56:45.789Z,10.85
2022-10-11T07:59:15.792Z,13.77
2022-10-11T08:01:45.860Z,15.15
2022-10-11T08:04:15.815Z,11.88
2022-10-11T08:06:44.672Z,10.10
2022-10-11T08:09:14.123Z,13.50
2022-10-11T08:11:43.344Z,11.32
2022-10-11T08:14:13.280Z,11.40
2022-10-11T08:16:42.304Z,8.45
2022-10-11T08:19:13.548Z,10.68
2022-10-11T08:21:43.376Z,10.00
2022-10-11T08:24:15.060Z,11.82
2022-10-11T08:26:43.795Z,18.15
2022-10-11T08:29:14.491Z,7.95
2022-10-11T08:34:33.888Z,10.60
2022-10-11T08:37:02.797Z,11.43
2022-10-11T08:39:32.608Z,8.63
2022-10-11T08:42:06.423Z,10.10
2022-10-11T08:45:09.524Z,9.65
2022-10-11T08:47:37.692Z,8.75
2022-10-11T08:50:14.925Z,10.88
2022-10-11T08:52:49.181Z,15.45
2022-10-11T08:55:22.925Z,9.93
2022-10-11T08:57:55.839Z,12.43
2022-10-11T09:00:25.758Z,11.95
2022-10-11T09:03:10.052Z,10.23
2022-10-11T09:05:52.871Z,6.90
2022-10-11T09:08:27.216Z,9.18
2022-10-11T09:11:00.968Z,16.45
2022-10-11T09:13:55.137Z,13.10
2022-10-11T09:16:35.832Z,11.32
2022-10-11T09:19:26.743Z,14.10
2022-10-11T09:22:07.330Z,8.00
2022-10-11T09:24:56.843Z,6.88
2022-10-11T09:27:50.385Z,10.00
2022-10-11T09:30:21.555Z,8.15
2022-10-11T09:33:00.476Z,9.23
2022-10-11T09:35:33.375Z,6.00
2022-10-11T09:38:08.815Z,10.38
2022-10-11T09:40:53.598Z,7.15
2022-10-11T09:43:22.307Z,5.20
2022-10-11T09:45:52.687Z,9.85
2022-10-11T09:48:24.839Z,9.52
2022-10-11T09:51:06.035Z,6.78
2022-10-11T09:53:55.098Z,13.93
2022-10-11T09:56:25.169Z,10.45
2022-10-11T09:59:20.045Z,8.10
2022-10-11T10:01:49.202Z,11.48
2022-10-11T10:04:19.340Z,9.27
2022-10-11T10:06:48.024Z,5.35
2022-10-11T10:09:26.207Z,7.75
2022-10-11T10:11:55.990Z,8.25
2022-10-11T10:14:27.915Z,10.98
2022-10-11T10:17:03.466Z,7.35
2022-10-11T10:19:45.094Z,8.93
2022-10-11T10:22:20.104Z,8.57
2022-10-11T10:24:51.942Z,11.38
2022-10-11T10:27:23.237Z,9.90
2022-10-11T10:30:14.222Z,8.30
2022-10-11T10:32:52.879Z,8.85
2022-10-11T10:35:42.589Z,5.60
2022-10-11T10:38:25.569Z,7.30
2022-10-11T10:40:59.101Z,7.90
2022-10-11T10:43:30.057Z,5.70
2022-10-11T10:46:19.097Z,14.20
2022-10-11T10:51:53.971Z,8.15
2022-10-11T10:54:37.231Z,9.77
2022-10-11T10:57:18.858Z,7.70
2022-10-11T11:00:06.037Z,7.80
2022-10-11T11:02:42.855Z,7.00
2022-10-11T11:05:25.248Z,7.68
2022-10-11T11:08:00.686Z,4.30
2022-10-11T11:10:36.403Z,7.78
2022-10-11T11:13:21.109Z,7.15
2022-10-11T11:15:55.429Z,5.78
2022-10-11T11:18:30.438Z,8.50
2022-10-11T11:21:12.973Z,6.97
2022-10-11T11:23:50.158Z,5.55
2022-10-11T11:26:27.054Z,6.50
2022-10-11T11:29:07.729Z,11.18
2022-10-11T11:31:58.637Z,5.68
2022-10-11T11:34:30.207Z,8.55
2022-10-11T11:37:03.094Z,7.80
2022-10-11T11:39:35.893Z,7.32
2022-10-11T11:42:09.011Z,5.88
2022-10-11T11:44:41.643Z,11.25
2022-10-11T11:47:18.062Z,5.68
2022-10-11T11:49:50.896Z,5.10
2022-10-11T11:52:28.127Z,6.53
2022-10-11T11:55:06.602Z,6.78
2022-10-11T11:57:50.191Z,8.50
2022-10-11T12:00:22.166Z,5.47
2022-10-11T12:02:54.688Z,6.55
2022-10-11T12:05:29.622Z,7.28
2022-10-11T12:08:02.158Z,7.28
2022-10-11T12:10:35.167Z,10.57
2022-10-11T12:13:18.984Z,7.35
2022-10-11T12:16:10.897Z,7.70
2022-10-11T12:18:55.262Z,5.13
2022-10-11T12:21:29.757Z,9.60
2022-10-11T12:24:00.271Z,8.23
2022-10-11T12:26:40.897Z,9.82
2022-10-11T12:29:47.189Z,5.45
2022-10-11T12:32:51.346Z,7.32
2022-10-11T12:35:52.720Z,6.78
2022-10-11T12:38:24.266Z,6.97
2022-10-11T12:40:54.682Z,5.53
2022-10-11T12:43:57.638Z,6.95
2022-10-11T12:47:01.504Z,8.23
2022-10-11T12:49:46.808Z,4.85
2022-10-11T12:52:32.235Z,6.68
2022-10-11T12:55:35.288Z,9.27
2022-10-11T12:58:26.853Z,5.47
2022-10-11T13:01:34.497Z,6.28
2022-10-11T13:04:07.545Z,6.90
2022-10-11T13:06:47.161Z,5.18
2022-10-11T13:09:48.963Z,7.43
2022-10-11T13:12:21.173Z,6.20
2022-10-11T13:15:01.191Z,8.45
2022-10-11T13:17:38.167Z,6.88
2022-10-11T13:20:18.642Z,6.13
2022-10-11T13:22:50.466Z,5.63
2022-10-11T13:25:24.480Z,9.10
2022-10-11T13:27:55.296Z,7.85
2022-10-11T13:30:28.692Z,7.05
2022-10-11T13:32:58.689Z,6.22
2022-10-11T13:35:53.669Z,7.32
2022-10-11T13:38:27.019Z,6.68
2022-10-11T13:40:58.093Z,4.05
2022-10-11T13:43:28.840Z,9.38
2022-10-11T13:46:00.534Z,8.18
2022-10-11T13:48:32.087Z,6.20
2022-10-11T13:51:09.658Z,8.20
2022-10-11T13:53:58.485Z,9.45
2022-10-11T13:56:28.562Z,7.82
2022-10-11T13:58:57.550Z,10.07
2022-10-11T14:01:29.360Z,6.68
2022-10-11T14:04:01.235Z,7.05
2022-10-11T14:06:45.614Z,10.52
2022-10-11T14:09:25.446Z,8.18
2022-10-11T14:11:54.424Z,7.18
2022-10-11T14:14:40.660Z,8.75
2022-10-11T14:17:16.032Z,7.68
2022-10-11T14:19:45.746Z,4.43
2022-10-11T14:22:16.810Z,7.57
2022-10-11T14:24:49.119Z,5.70
2022-10-11T14:27:21.620Z,7.20
2022-10-11T14:30:12.642Z,6.72
2022-10-11T14:32:40.019Z,10.05
2022-10-11T14:35:16.695Z,5.65
2022-10-11T14:37:46.771Z,10.82
2022-10-11T14:40:20.395Z,10.45
2022-10-11T14:42:49.462Z,6.68
2022-10-11T14:45:18.238Z,6.63
2022-10-11T14:47:46.786Z,7.78
2022-10-11T14:50:32.766Z,6.38
2022-10-11T14:53:01.814Z,4.72
2022-10-11T14:55:36.864Z,4.32
2022-10-11T14:58:05.795Z,4.55
2022-10-11T15:00:35.613Z,9.13
2022-10-11T15:03:04.959Z,7.78
2022-10-11T15:05:34.316Z,8.27
2022-10-11T15:08:03.676Z,7.90
2022-10-11T15:10:37.350Z,4.68
2022-10-11T15:13:07.749Z,7.55
2022-10-11T15:15:41.011Z,7.47
2022-10-11T15:18:13.150Z,5.93
2022-10-11T15:20:45.724Z,3.75
2022-10-11T15:23:14.871Z,8.10
2022-10-11T15:25:44.647Z,8.27
2022-10-11T15:28:24.793Z,5.43
2022-10-11T15:30:55.768Z,4.75
2022-10-11T15:33:25.952Z,6.78
2022-10-11T15:35:54.229Z,6.60
2022-10-11T15:38:26.173Z,6.43
2022-10-11T15:40:56.787Z,5.97
2022-10-11T15:43:27.576Z,7.28
2022-10-11T15:45:56.805Z,8.75
2022-10-11T15:48:29.338Z,5.38
2022-10-11T15:50:58.753Z,6.68
2022-10-11T15:53:31.207Z,10.95
2022-10-11T15:56:05.220Z,7.43
2022-10-11T15:58:37.298Z,7.47
2022-10-11T16:01:08.848Z,6.10
2022-10-11T16:03:38.113Z,10.32
2022-10-11T16:06:08.563Z,7.43
2022-10-11T16:08:37.755Z,9.23
2022-10-11T16:11:09.639Z,6.43
2022-10-11T16:13:39.050Z,8.88
2022-10-11T16:16:10.312Z,8.10
2022-10-11T16:18:39.212Z,9.57
2022-10-11T16:21:10.200Z,10.73
2022-10-11T16:23:39.724Z,11.68
2022-10-11T16:26:13.899Z,12.25
2022-10-11T16:28:42.999Z,9.88
2022-10-11T16:31:14.495Z,6.28
2022-10-11T16:33:46.630Z,11.20
2022-10-11T16:36:36.527Z,5.60
2022-10-11T16:39:08.888Z,9.18
2022-10-11T16:41:39.485Z,6.88
2022-10-11T16:44:08.608Z,8.45
2022-10-11T16:46:37.605Z,8.93
2022-10-11T16:49:06.721Z,7.07
2022-10-11T16:51:36.467Z,8.02
2022-10-11T16:54:05.068Z,7.97
2022-10-11T16:56:38.883Z,6.65
2022-10-11T16:59:10.159Z,8.40
2022-10-11T17:01:40.010Z,10.50
2022-10-11T17:04:09.201Z,9.35
2022-10-11T17:06:37.923Z,9.90
2022-10-11T17:09:07.022Z,9.20
2022-10-11T17:11:36.992Z,11.60
2022-10-11T17:14:07.121Z,7.82
2022-10-11T17:16:37.591Z,7.30
2022-10-11T17:19:09.946Z,8.95
2022-10-11T17:21:40.662Z,7.20
2022-10-11T17:24:10.044Z,7.95
2022-10-11T17:26:39.299Z,9.10
2022-10-11T17:29:07.848Z,10.30
2022-10-11T17:31:38.617Z,14.27
2022-10-11T17:34:07.901Z,7.90
2022-10-11T17:36:36.070Z,7.78
2022-10-11T17:39:07.472Z,7.45
2022-10-11T17:41:37.806Z,9.60
2022-10-11T17:44:06.825Z,9.35
2022-10-11T17:46:36.781Z,12.82
2022-10-11T17:49:08.685Z,10.65
2022-10-11T17:51:38.576Z,10.93
2022-10-11T17:54:12.493Z,10.25
2022-10-11T17:56:42.750Z,7.65
2022-10-11T17:59:17.240Z,13.13
2022-10-11T18:01:47.275Z,8.05
2022-10-11T18:04:17.839Z,8.40
2022-10-11T18:06:47.838Z,8.98
2022-10-11T18:09:18.082Z,6.93
2022-10-11T18:11:47.376Z,8.45
2022-10-11T18:14:16.417Z,7.88
2022-10-11T18:16:46.190Z,7.00
2022-10-11T18:19:15.457Z,6.82
2022-10-11T18:21:44.434Z,10.60
2022-10-11T18:24:16.363Z,8.13
2022-10-11T18:26:46.012Z,6.10
2022-10-11T18:29:14.912Z,11.50
2022-10-11T18:31:43.652Z,7.45
2022-10-11T18:34:15.706Z,8.45
2022-10-11T18:36:44.626Z,7.43
2022-10-11T18:39:15.031Z,8.07
2022-10-11T18:41:45.037Z,10.05
2022-10-11T18:44:16.194Z,9.70
2022-10-11T18:46:46.077Z,9.60
2022-10-11T18:49:16.379Z,10.02
2022-10-11T18:51:47.905Z,8.23
2022-10-11T18:54:20.151Z,9.30
2022-10-11T18:56:50.230Z,8.35
2022-10-11T18:59:18.728Z,7.35
2022-10-11T19:01:48.034Z,6.53
2022-10-11T19:04:18.003Z,8.77
2022-10-11T19:06:48.360Z,9.88
2022-10-11T19:09:21.872Z,7.13
2022-10-11T19:11:51.258Z,8.63
2022-10-11T19:14:22.219Z,8.27
2022-10-11T19:16:52.456Z,7.32
2022-10-11T19:19:24.440Z,6.40
2022-10-11T19:21:53.905Z,8.48
2022-10-11T19:24:23.906Z,7.75
2022-10-11T19:26:56.230Z,10.68
2022-10-11T19:29:29.020Z,5.95
2022-10-11T19:32:00.370Z,10.23
2022-10-11T19:34:31.992Z,5.88
2022-10-11T19:37:03.109Z,6.45
2022-10-11T19:39:32.337Z,11.32
2022-10-11T19:42:01.755Z,11.20
2022-10-11T19:44:30.109Z,6.00
2022-10-11T19:47:04.190Z,9.23
2022-10-11T19:49:35.075Z,5.03
2022-10-11T19:52:03.890Z,8.18
2022-10-11T19:54:33.088Z,7.35
2022-10-11T19:57:01.784Z,9.13
2022-10-11T19:59:30.146Z,9.15
2022-10-11T20:01:58.596Z,7.85
2022-10-11T20:04:51.226Z,9.40
2022-10-11T20:07:17.663Z,6.80
2022-10-11T20:09:47.440Z,10.27
2022-10-11T20:12:15.674Z,10.68
2022-10-11T20:14:44.442Z,5.65
2022-10-11T20:17:13.143Z,9.35
2022-10-11T20:19:41.737Z,6.00
2022-10-11T20:22:10.642Z,11.70
2022-10-11T20:24:40.170Z,11.40
2022-10-11T20:27:08.627Z,8.43
2022-10-11T20:29:37.429Z,7.93
2022-10-11T20:32:06.252Z,9.63
2022-10-11T20:34:36.455Z,11.60
2022-10-11T20:37:05.520Z,9.07
2022-10-11T20:39:33.802Z,9.05
2022-10-11T20:42:04.579Z,7.40
2022-10-11T20:44:33.096Z,12.93
2022-10-11T20:47:04.218Z,8.02
2022-10-11T20:49:33.104Z,9.25
2022-10-11T20:52:05.977Z,15.40
2022-10-11T20:54:35.651Z,9.68
2022-10-11T20:57:05.517Z,6.85
2022-10-11T20:59:33.862Z,9.07
2022-10-11T21:02:03.297Z,9.98
2022-10-11T21:04:31.710Z,9.55
2022-10-11T21:07:00.424Z,7.03
2022-10-11T21:09:28.669Z,12.32
2022-10-11T21:11:57.803Z,9.77
2022-10-11T21:14:27.768Z,5.93
2022-10-11T21:16:57.782Z,5.22
2022-10-11T21:19:26.481Z,8.00
2022-10-11T21:21:54.888Z,6.03
2022-10-11T21:24:23.795Z,6.40
2022-10-11T21:26:54.870Z,5.05
2022-10-11T21:29:27.055Z,9.48
2022-10-11T21:31:55.523Z,7.55
2022-10-11T21:34:24.238Z,9.65
2022-10-11T21:36:52.356Z,7.30
2022-10-11T21:39:20.782Z,10.55
2022-10-11T21:41:49.491Z,6.78
2022-10-11T21:44:18.821Z,8.18
2022-10-11T21:47:05.967Z,9.52
2022-10-11T21:49:35.040Z,9.10
2022-10-11T21:52:04.078Z,12.50
2022-10-11T21:54:32.816Z,8.90
2022-10-11T21:57:01.211Z,12.82
2022-10-11T21:59:29.503Z,8.00
2022-10-11T22:02:01.881Z,8.88
2022-10-11T22:04:30.501Z,9.32
2022-10-11T22:06:58.686Z,7.07
2022-10-11T22:09:27.853Z,7.50
2022-10-11T22:11:57.369Z,11.52
2022-10-11T22:14:26.326Z,6.65
2022-10-11T22:16:57.607Z,10.93
2022-10-11T22:19:27.902Z,11.15
2022-10-11T22:21:56.266Z,11.23
2022-10-11T22:24:26.201Z,8.30
2022-10-11T22:26:54.684Z,9.65
2022-10-11T22:29:24.593Z,10.38
2022-10-11T22:31:53.525Z,8.73
2022-10-11T22:34:22.088Z,12.98
2022-10-11T22:36:52.295Z,11.32
2022-10-11T22:39:22.579Z,8.65
2022-10-11T22:41:51.205Z,9.25
2022-10-11T22:44:20.062Z,7.85
2022-10-11T22:46:48.539Z,17.20
2022-10-11T22:49:18.271Z,9.82
2022-10-11T22:51:49.891Z,9.63
2022-10-11T22:54:20.169Z,15.43
2022-10-11T22:56:48.837Z,12.02
2022-10-11T22:59:17.656Z,10.95
2022-10-11T23:01:47.407Z,9.32
2022-10-11T23:04:19.057Z,7.07
2022-10-11T23:06:47.844Z,8.93
2022-10-11T23:09:16.113Z,10.70
2022-10-11T23:11:47.820Z,15.35
2022-10-11T23:14:17.054Z,8.02
2022-10-11T23:16:46.350Z,8.70
2022-10-11T23:19:14.723Z,10.38
2022-10-11T23:21:43.194Z,11.82
2022-10-11T23:24:12.611Z,10.68
2022-10-11T23:26:41.300Z,11.70
2022-10-11T23:29:10.933Z,10.43
2022-10-11T23:31:39.235Z,10.88
2022-10-11T23:34:09.507Z,11.45
2022-10-11T23:36:37.999Z,10.77
2022-10-11T23:39:06.430Z,11.95
2022-10-11T23:41:35.836Z,12.63
2022-10-11T23:44:04.410Z,10.25
2022-10-11T23:47:04.657Z,13.88
2022-10-11T23:50:01.948Z,9.70
2022-10-11T23:52:30.477Z,6.72
2022-10-11T23:55:00.337Z,13.50
2022-10-11T23:57:34.493Z,10.80
